Time;durP1;ratioP1;P1;durP2;ratioP2;P2;SDS_P1;SDS_P2;PMS_P1;PMS_P2;Temp;Humidity;BMP_temperature;BMP_pressure;BME280_temperature;BME280_humidity;BME280_pressure;Samples;Min_cycle;Max_cycle;Signal;HPM_P1;HPM_P2
2023/06/01 00:02:08;;;;;;;;;8.80;7.40;;;;;;;;5055576;28;45484;-58
2023/06/01 00:04:34;;;;;;;;;8.00;8.00;;;;;;;;5071066;28;46814;-58
2023/06/01 00:07:01;;;;;;;;;8.75;7.25;;;;;;;;5070947;28;45332;-58
2023/06/01 00:09:26;;;;;;;;;8.20;8.20;;;;;;;;5055638;28;45269;-57
2023/06/01 00:11:52;;;;;;;;;8.00;8.00;;;;;;;;5027835;28;46003;-57
2023/06/01 00:14:18;;;;;;;;;11.75;9.50;;;;;;;;5055114;28;46683;-58
2023/06/01 00:16:44;;;;;;;;;7.20;6.60;;;;;;;;5053988;28;45413;-57
2023/06/01 00:19:11;;;;;;;;;9.40;8.00;;;;;;;;5055231;28;45403;-57
2023/06/01 00:21:36;;;;;;;;;7.80;7.80;;;;;;;;5055346;28;45258;-59
2023/06/01 00:24:02;;;;;;;;;9.50;8.25;;;;;;;;5054976;28;45447;-58
2023/06/01 00:26:29;;;;;;;;;8.20;7.00;;;;;;;;5055158;28;45316;-61
2023/06/01 00:28:55;;;;;;;;;8.20;7.20;;;;;;;;5054816;28;45325;-58
2023/06/01 00:31:20;;;;;;;;;8.00;8.00;;;;;;;;5055403;28;45353;-57
2023/06/01 00:33:45;;;;;;;;;11.00;10.00;;;;;;;;5053380;28;46408;-57
2023/06/01 00:36:10;;;;;;;;;8.25;7.50;;;;;;;;5053490;28;45590;-58
2023/06/01 00:38:36;;;;;;;;;10.50;9.75;;;;;;;;5036493;28;45331;-56
2023/06/01 00:41:01;;;;;;;;;7.75;7.75;;;;;;;;5055010;28;45527;-58
2023/06/01 00:43:26;;;;;;;;;11.00;9.75;;;;;;;;5054597;28;45313;-56
2023/06/01 00:45:52;;;;;;;;;9.75;7.25;;;;;;;;5054825;28;45434;-57
2023/06/01 00:48:17;;;;;;;;;9.00;8.00;;;;;;;;5036685;28;45304;-58
2023/06/01 00:50:42;;;;;;;;;9.50;9.25;;;;;;;;5055065;28;45462;-58
2023/06/01 00:53:09;;;;;;;;;9.25;9.25;;;;;;;;5054417;28;45622;-59
2023/06/01 00:55:34;;;;;;;;;8.20;8.20;;;;;;;;5070009;28;45352;-56
2023/06/01 00:58:00;;;;;;;;;6.50;5.50;;;;;;;;5054593;28;45265;-56
2023/06/01 01:00:26;;;;;;;;;10.00;9.60;;;;;;;;5055037;28;45530;-58
2023/06/01 01:02:51;;;;;;;;;12.25;10.00;;;;;;;;5070159;28;45424;-57
2023/06/01 01:05:17;;;;;;;;;8.25;8.00;;;;;;;;5055073;28;45386;-58
2023/06/01 01:07:55;;;;;;;;;15.00;12.50;;;;;;;;5053189;28;45372;-58
2023/06/01 01:10:31;;;;;;;;;11.80;9.40;;;;;;;;5054790;28;45395;-58
2023/06/01 01:13:09;;;;;;;;;13.20;11.60;;;;;;;;5054296;28;45826;-57
2023/06/01 01:15:38;;;;;;;;;12.60;9.60;;;;;;;;5054532;28;45345;-55
2023/06/01 01:18:04;;;;;;;;;12.40;10.60;;;;;;;;5053083;28;45430;-57
2023/06/01 01:20:34;;;;;;;;;13.40;11.00;;;;;;;;5070214;28;45587;-58
2023/06/01 01:23:04;;;;;;;;;11.00;9.60;;;;;;;;5069858;28;45797;-59
2023/06/01 01:25:49;;;;;;;;;12.80;10.80;;;;;;;;5070120;28;45520;-58
2023/06/01 01:28:33;;;;;;;;;11.80;10.80;;;;;;;;5054739;28;45358;-59
2023/06/01 01:30:59;;;;;;;;;13.00;13.00;;;;;;;;5054259;28;45452;-57
2023/06/01 01:33:24;;;;;;;;;10.00;9.75;;;;;;;;5054223;28;46893;-59
2023/06/01 01:35:50;;;;;;;;;14.50;12.75;;;;;;;;5069891;28;45503;-59
2023/06/01 01:38:15;;;;;;;;;9.00;9.00;;;;;;;;5054460;28;45335;-57
2023/06/01 01:40:41;;;;;;;;;13.25;11.75;;;;;;;;5057437;28;45422;-59
2023/06/01 01:43:06;;;;;;;;;16.00;13.75;;;;;;;;5072905;28;46609;-56
2023/06/01 01:45:31;;;;;;;;;16.00;12.75;;;;;;;;5057714;28;45395;-58
2023/06/01 01:48:15;;;;;;;;;15.00;13.00;;;;;;;;5057677;28;45821;-58
2023/06/01 01:50:50;;;;;;;;;14.20;12.80;;;;;;;;5057587;28;45756;-57
2023/06/01 01:53:16;;;;;;;;;18.20;11.40;;;;;;;;5055792;28;46256;-55
2023/06/01 01:55:41;;;;;;;;;17.50;13.50;;;;;;;;5055955;28;45348;-57
2023/06/01 01:58:06;;;;;;;;;17.75;15.50;;;;;;;;5055672;28;45437;-58
2023/06/01 02:00:32;;;;;;;;;16.25;15.75;;;;;;;;5057429;28;45529;-58
2023/06/01 02:02:58;;;;;;;;;17.75;15.00;;;;;;;;5057054;28;46522;-58
2023/06/01 02:05:23;;;;;;;;;15.60;15.00;;;;;;;;5030600;28;45944;-60
2023/06/01 02:07:49;;;;;;;;;14.00;14.00;;;;;;;;5056876;28;46209;-57
2023/06/01 02:10:14;;;;;;;;;15.00;14.75;;;;;;;;5057398;28;45380;-59
2023/06/01 02:12:39;;;;;;;;;17.25;17.25;;;;;;;;5056849;28;47654;-57
2023/06/01 02:15:05;;;;;;;;;18.50;16.00;;;;;;;;5056878;28;45353;-58
2023/06/01 02:17:32;;;;;;;;;20.00;18.00;;;;;;;;5055739;28;45302;-56
2023/06/01 02:19:58;;;;;;;;;17.20;16.20;;;;;;;;5056933;28;45322;-56
2023/06/01 02:22:23;;;;;;;;;19.75;18.50;;;;;;;;5057013;28;45663;-58
2023/06/01 02:24:48;;;;;;;;;23.50;20.00;;;;;;;;5055050;28;45628;-60
2023/06/01 02:27:13;;;;;;;;;24.00;22.25;;;;;;;;5057139;28;45331;-56
2023/06/01 02:29:39;;;;;;;;;19.25;17.25;;;;;;;;5057127;28;45372;-57
2023/06/01 02:32:04;;;;;;;;;20.25;18.00;;;;;;;;5056602;28;46383;-58
2023/06/01 02:34:30;;;;;;;;;16.25;16.25;;;;;;;;5056833;28;45322;-58
2023/06/01 02:36:55;;;;;;;;;23.25;19.50;;;;;;;;5055305;28;45374;-60
2023/06/01 02:39:21;;;;;;;;;23.00;21.25;;;;;;;;5056787;28;45356;-59
2023/06/01 02:41:46;;;;;;;;;23.00;19.25;;;;;;;;5056035;28;46257;-58
2023/06/01 02:44:12;;;;;;;;;24.25;20.50;;;;;;;;5056663;28;45435;-56
2023/06/01 02:46:37;;;;;;;;;21.25;20.25;;;;;;;;5055512;28;45415;-57
2023/06/01 02:49:03;;;;;;;;;23.75;22.75;;;;;;;;5055050;28;45306;-58
2023/06/01 02:51:30;;;;;;;;;25.40;23.20;;;;;;;;5054555;28;47281;-57
2023/06/01 02:53:56;;;;;;;;;18.60;17.00;;;;;;;;5054830;28;45397;-59
2023/06/01 02:56:21;;;;;;;;;25.50;22.25;;;;;;;;5056687;28;45280;-57
2023/06/01 02:58:46;;;;;;;;;22.25;21.25;;;;;;;;5056102;28;45238;-57
2023/06/01 03:01:12;;;;;;;;;26.00;24.25;;;;;;;;5055928;28;46464;-55
2023/06/01 03:03:41;;;;;;;;;26.00;23.25;;;;;;;;5056123;28;45372;-58
2023/06/01 03:06:08;;;;;;;;;25.20;23.40;;;;;;;;5056167;28;45350;-59
2023/06/01 03:08:34;;;;;;;;;22.00;20.80;;;;;;;;5056668;28;45495;-57
2023/06/01 03:10:59;;;;;;;;;24.50;24.50;;;;;;;;5055981;28;46591;-58
2023/06/01 03:13:24;;;;;;;;;30.75;24.25;;;;;;;;5055348;28;45293;-59
2023/06/01 03:15:50;;;;;;;;;23.75;22.75;;;;;;;;5056595;28;45176;-59
2023/06/01 03:18:16;;;;;;;;;23.00;22.75;;;;;;;;5054775;28;45411;-56
2023/06/01 03:20:41;;;;;;;;;23.25;22.25;;;;;;;;5056079;28;45369;-57
2023/06/01 03:23:07;;;;;;;;;23.75;22.50;;;;;;;;5055520;28;45259;-59
2023/06/01 03:25:33;;;;;;;;;31.25;28.00;;;;;;;;5056311;28;45225;-58
2023/06/01 03:27:58;;;;;;;;;25.60;25.00;;;;;;;;5054644;28;45710;-58
2023/06/01 03:30:23;;;;;;;;;21.25;21.25;;;;;;;;5055898;28;46781;-60
2023/06/01 03:32:49;;;;;;;;;25.00;25.00;;;;;;;;5055904;28;45324;-56
2023/06/01 03:35:14;;;;;;;;;27.50;24.50;;;;;;;;5055842;28;45296;-58
2023/06/01 03:37:40;;;;;;;;;24.50;22.25;;;;;;;;5055795;28;45439;-59
2023/06/01 03:40:11;;;;;;;;;23.50;21.50;;;;;;;;5055053;28;45600;-58
2023/06/01 03:42:37;;;;;;;;;32.80;30.00;;;;;;;;5055782;28;45246;-58
2023/06/01 03:45:04;;;;;;;;;28.75;24.25;;;;;;;;5044465;28;45869;-61
2023/06/01 03:47:30;;;;;;;;;36.80;32.40;;;;;;;;5043164;28;45938;-57
2023/06/01 03:49:55;;;;;;;;;26.75;26.50;;;;;;;;5053868;28;46376;-57
2023/06/01 03:52:20;;;;;;;;;30.75;25.25;;;;;;;;5045769;28;45750;-56
2023/06/01 03:54:45;;;;;;;;;26.00;23.00;;;;;;;;5043663;28;45239;-55
2023/06/01 03:57:11;;;;;;;;;26.00;24.00;;;;;;;;5046255;28;45323;-54
2023/06/01 03:59:36;;;;;;;;;32.25;24.50;;;;;;;;5044599;28;45280;-57
2023/06/01 04:02:02;;;;;;;;;27.75;26.25;;;;;;;;5047984;28;45307;-58
2023/06/01 04:04:28;;;;;;;;;24.80;19.40;;;;;;;;5050056;28;45322;-59
2023/06/01 04:06:54;;;;;;;;;27.00;25.50;;;;;;;;5034273;28;45371;-60
2023/06/01 04:09:21;;;;;;;;;27.00;25.20;;;;;;;;5035223;28;45646;-59
2023/06/01 04:11:46;;;;;;;;;28.40;26.20;;;;;;;;5034615;28;45221;-58
2023/06/01 04:14:11;;;;;;;;;31.00;26.25;;;;;;;;5035261;28;45239;-58
2023/06/01 04:16:36;;;;;;;;;26.50;25.25;;;;;;;;5035590;28;45207;-59
2023/06/01 04:19:02;;;;;;;;;34.25;30.50;;;;;;;;5050182;28;47454;-58
2023/06/01 04:21:27;;;;;;;;;28.25;24.50;;;;;;;;5035004;28;45604;-59
2023/06/01 04:23:52;;;;;;;;;32.25;30.00;;;;;;;;5035398;28;45322;-56
2023/06/01 04:26:18;;;;;;;;;26.75;24.00;;;;;;;;5035585;28;45292;-58
2023/06/01 04:28:43;;;;;;;;;28.50;26.00;;;;;;;;5034909;28;47394;-61
2023/06/01 04:31:16;;;;;;;;;37.50;30.25;;;;;;;;5034991;28;45705;-58
2023/06/01 04:33:42;;;;;;;;;33.20;29.60;;;;;;;;5033707;28;45416;-57
2023/06/01 04:36:09;;;;;;;;;26.50;24.00;;;;;;;;5035179;28;45763;-58
2023/06/01 04:38:35;;;;;;;;;35.00;31.20;;;;;;;;5049957;28;48472;-56
2023/06/01 04:41:00;;;;;;;;;32.00;30.00;;;;;;;;5034951;28;45361;-58
2023/06/01 04:43:27;;;;;;;;;28.75;28.50;;;;;;;;5034593;28;45305;-58
2023/06/01 04:45:52;;;;;;;;;30.40;26.60;;;;;;;;5034832;28;45382;-61
2023/06/01 04:48:20;;;;;;;;;32.50;29.25;;;;;;;;5034703;28;45998;-59
2023/06/01 04:50:45;;;;;;;;;34.80;31.60;;;;;;;;5034189;28;45425;-57
2023/06/01 04:53:10;;;;;;;;;36.50;30.75;;;;;;;;5035123;28;45538;-58
2023/06/01 04:55:36;;;;;;;;;34.75;31.50;;;;;;;;5055106;28;45653;-58
2023/06/01 04:58:01;;;;;;;;;37.00;32.00;;;;;;;;5051915;28;47836;-58
2023/06/01 05:00:26;;;;;;;;;34.25;31.00;;;;;;;;5053047;28;46027;-58
2023/06/01 05:02:52;;;;;;;;;34.25;26.50;;;;;;;;5054583;28;45197;-59
2023/06/01 05:05:17;;;;;;;;;35.25;31.50;;;;;;;;5054694;28;45170;-59
2023/06/01 05:07:42;;;;;;;;;25.25;20.25;;;;;;;;5054407;28;46366;-61
2023/06/01 05:10:08;;;;;;;;;34.25;31.00;;;;;;;;5054062;28;45393;-60
2023/06/01 05:12:34;;;;;;;;;28.60;26.40;;;;;;;;5054633;28;45324;-58
2023/06/01 05:14:59;;;;;;;;;37.75;30.25;;;;;;;;5053781;28;45332;-58
2023/06/01 05:17:25;;;;;;;;;41.50;32.50;;;;;;;;5054183;28;46276;-60
2023/06/01 05:19:50;;;;;;;;;33.75;32.00;;;;;;;;5054127;28;45482;-58
2023/06/01 05:22:15;;;;;;;;;35.00;30.75;;;;;;;;5054357;28;45828;-58
2023/06/01 05:24:41;;;;;;;;;37.75;33.00;;;;;;;;5054496;28;45259;-59
2023/06/01 05:27:06;;;;;;;;;37.50;31.25;;;;;;;;5069667;28;47035;-57
2023/06/01 05:29:31;;;;;;;;;34.75;30.75;;;;;;;;5054561;28;45439;-60
2023/06/01 05:31:56;;;;;;;;;38.75;33.25;;;;;;;;5054098;28;45430;-61
2023/06/01 05:34:22;;;;;;;;;37.25;32.25;;;;;;;;5054229;28;45499;-58
2023/06/01 05:36:48;;;;;;;;;30.00;23.00;;;;;;;;5054015;28;47187;-59
2023/06/01 05:39:14;;;;;;;;;38.20;33.00;;;;;;;;5054008;28;45396;-58
2023/06/01 05:41:40;;;;;;;;;35.60;31.20;;;;;;;;5054519;28;45334;-57
2023/06/01 05:44:05;;;;;;;;;37.00;32.50;;;;;;;;5054085;28;45359;-58
2023/06/01 05:46:31;;;;;;;;;36.00;29.25;;;;;;;;5070003;28;45822;-60
2023/06/01 05:48:56;;;;;;;;;38.25;32.25;;;;;;;;5054396;28;45335;-57
2023/06/01 05:51:21;;;;;;;;;35.00;29.50;;;;;;;;5052970;28;45331;-56
2023/06/01 05:53:46;;;;;;;;;40.00;33.25;;;;;;;;5069720;28;45348;-58
2023/06/01 05:56:12;;;;;;;;;41.00;35.00;;;;;;;;5054042;28;46520;-60
2023/06/01 05:58:37;;;;;;;;;32.00;30.00;;;;;;;;5033189;28;45403;-58
2023/06/01 06:01:03;;;;;;;;;36.25;31.00;;;;;;;;5049744;28;45410;-59
2023/06/01 06:03:28;;;;;;;;;36.00;30.50;;;;;;;;5054039;28;45177;-58
2023/06/01 06:05:54;;;;;;;;;38.25;31.50;;;;;;;;5053783;28;45463;-57
2023/06/01 06:08:19;;;;;;;;;37.00;31.25;;;;;;;;5052242;28;45337;-58
2023/06/01 06:10:46;;;;;;;;;33.00;30.25;;;;;;;;5052266;28;45431;-58
2023/06/01 06:13:13;;;;;;;;;31.60;29.20;;;;;;;;5044234;28;45321;-57
2023/06/01 06:15:38;;;;;;;;;36.00;30.20;;;;;;;;5042174;28;45397;-59
2023/06/01 06:18:06;;;;;;;;;33.00;29.50;;;;;;;;5043890;28;45268;-56
2023/06/01 06:20:31;;;;;;;;;25.20;23.40;;;;;;;;5043384;28;45244;-59
2023/06/01 06:22:57;;;;;;;;;35.25;32.00;;;;;;;;5042701;28;46757;-59
2023/06/01 06:25:22;;;;;;;;;33.50;30.25;;;;;;;;5044907;28;45632;-60
2023/06/01 06:27:48;;;;;;;;;35.50;30.25;;;;;;;;5046238;28;45423;-60
2023/06/01 06:30:13;;;;;;;;;36.00;32.25;;;;;;;;5046079;28;45412;-56
2023/06/01 06:32:38;;;;;;;;;42.00;34.25;;;;;;;;5047382;28;45437;-59
2023/06/01 06:35:04;;;;;;;;;34.25;30.25;;;;;;;;5045299;28;45573;-59
2023/06/01 06:37:30;;;;;;;;;31.00;29.25;;;;;;;;5046367;28;46105;-60
2023/06/01 06:39:55;;;;;;;;;39.75;33.00;;;;;;;;5047039;28;45993;-57
2023/06/01 06:42:20;;;;;;;;;35.50;29.75;;;;;;;;5045628;28;45435;-57
2023/06/01 06:44:45;;;;;;;;;35.00;29.25;;;;;;;;5047678;28;46042;-59
2023/06/01 06:47:15;;;;;;;;;35.75;32.00;;;;;;;;5055419;28;45250;-57
2023/06/01 06:49:40;;;;;;;;;33.20;31.60;;;;;;;;5056316;28;45335;-58
2023/06/01 06:52:05;;;;;;;;;32.75;30.25;;;;;;;;5057232;28;45338;-57
2023/06/01 06:54:31;;;;;;;;;38.25;33.00;;;;;;;;5040096;28;47437;-60
2023/06/01 06:56:56;;;;;;;;;33.75;26.50;;;;;;;;5036680;28;45758;-60
2023/06/01 06:59:21;;;;;;;;;37.00;31.00;;;;;;;;5036860;28;45317;-59
2023/06/01 07:01:47;;;;;;;;;35.50;28.25;;;;;;;;5034047;28;45552;-56
2023/06/01 07:04:12;;;;;;;;;37.00;32.00;;;;;;;;5046941;28;46444;-59
2023/06/01 07:06:38;;;;;;;;;38.25;32.25;;;;;;;;5056433;28;45344;-60
2023/06/01 07:09:05;;;;;;;;;34.00;31.75;;;;;;;;4962027;28;45439;-61
2023/06/01 07:11:30;;;;;;;;;38.00;32.40;;;;;;;;5036799;28;45465;-60
2023/06/01 07:13:57;;;;;;;;;32.75;28.50;;;;;;;;5045954;28;46313;-59
2023/06/01 07:16:23;;;;;;;;;32.20;29.40;;;;;;;;5054370;28;45465;-60
2023/06/01 07:18:48;;;;;;;;;33.25;29.25;;;;;;;;5071475;28;45340;-61
2023/06/01 07:21:13;;;;;;;;;35.25;30.25;;;;;;;;5056595;28;45242;-60
2023/06/01 07:23:41;;;;;;;;;32.25;30.00;;;;;;;;5042782;28;46006;-59
2023/06/01 07:26:06;;;;;;;;;34.60;30.40;;;;;;;;5034439;28;45378;-61
2023/06/01 07:28:32;;;;;;;;;33.25;30.50;;;;;;;;5035957;28;45314;-60
2023/06/01 07:30:58;;;;;;;;;32.80;30.40;;;;;;;;5034347;28;45295;-62
2023/06/01 07:33:25;;;;;;;;;24.00;24.00;;;;;;;;5035271;28;46190;-59
2023/06/01 07:35:52;;;;;;;;;28.20;27.60;;;;;;;;5035537;28;45392;-59
2023/06/01 07:38:18;;;;;;;;;30.20;28.00;;;;;;;;5035086;28;45418;-57
2023/06/01 07:40:43;;;;;;;;;34.50;31.00;;;;;;;;5035348;28;45537;-59
2023/06/01 07:43:08;;;;;;;;;35.50;30.75;;;;;;;;5035321;28;46503;-61
2023/06/01 07:45:34;;;;;;;;;31.00;29.00;;;;;;;;5035644;28;45430;-59
2023/06/01 07:48:00;;;;;;;;;28.50;26.00;;;;;;;;5034088;28;45516;-60
2023/06/01 07:50:30;;;;;;;;;37.20;32.00;;;;;;;;5035420;28;45420;-62
2023/06/01 07:52:57;;;;;;;;;41.00;32.60;;;;;;;;5035304;28;47462;-56
2023/06/01 07:55:23;;;;;;;;;31.25;28.25;;;;;;;;5034904;28;45328;-58
2023/06/01 07:57:48;;;;;;;;;32.25;30.75;;;;;;;;5035585;28;45292;-60
2023/06/01 08:00:17;;;;;;;;;32.75;28.75;;;;;;;;5033909;28;45270;-61
2023/06/01 08:02:42;;;;;;;;;36.80;32.40;;;;;;;;5040825;28;45774;-60
2023/06/01 08:05:08;;;;;;;;;36.00;32.25;;;;;;;;5034813;28;45398;-59
2023/06/01 08:07:33;;;;;;;;;26.00;22.75;;;;;;;;5040060;28;46018;-61
2023/06/01 08:09:58;;;;;;;;;26.00;26.00;;;;;;;;5017921;28;45879;-61
2023/06/01 08:12:25;;;;;;;;;36.25;32.00;;;;;;;;5036447;28;45972;-63
2023/06/01 08:14:51;;;;;;;;;36.40;28.20;;;;;;;;5048363;28;45833;-60
2023/06/01 08:17:18;;;;;;;;;33.25;31.00;;;;;;;;5051635;28;45591;-62
2023/06/01 08:19:43;;;;;;;;;37.00;31.80;;;;;;;;5053025;28;45411;-62
2023/06/01 08:22:09;;;;;;;;;32.00;25.00;;;;;;;;5052517;28;45570;-62
2023/06/01 08:24:35;;;;;;;;;33.25;30.50;;;;;;;;5052996;28;45377;-62
2023/06/01 08:27:00;;;;;;;;;26.40;26.40;;;;;;;;5052222;28;45372;-62
2023/06/01 08:29:26;;;;;;;;;29.75;29.75;;;;;;;;5052091;28;45948;-63
2023/06/01 08:31:52;;;;;;;;;32.80;30.60;;;;;;;;5053927;28;45389;-63
2023/06/01 08:34:17;;;;;;;;;31.00;26.50;;;;;;;;5052132;28;45357;-62
2023/06/01 08:36:43;;;;;;;;;32.00;30.00;;;;;;;;5047430;28;45330;-62
2023/06/01 08:39:21;;;;;;;;;27.50;26.25;;;;;;;;5052902;28;45402;-62
2023/06/01 08:41:54;;;;;;;;;32.40;28.00;;;;;;;;5053063;28;45674;-63
2023/06/01 08:44:20;;;;;;;;;35.20;27.20;;;;;;;;5053576;28;45345;-63
2023/06/01 08:46:45;;;;;;;;;33.20;28.20;;;;;;;;5052808;28;45534;-63
2023/06/01 08:49:10;;;;;;;;;22.00;21.25;;;;;;;;5049354;28;45530;-64
2023/06/01 08:51:37;;;;;;;;;33.75;27.50;;;;;;;;5048483;28;45377;-61
2023/06/01 08:54:03;;;;;;;;;32.60;31.40;;;;;;;;5051160;28;45435;-63
2023/06/01 08:56:29;;;;;;;;;6.50;4.75;;;;;;;;5056984;28;45447;-64
2023/06/01 08:58:54;;;;;;;;;33.50;29.00;;;;;;;;5059676;28;45569;-63
2023/06/01 09:01:21;;;;;;;;;28.75;25.75;;;;;;;;5064049;28;45976;-61
2023/06/01 09:03:47;;;;;;;;;26.40;23.20;;;;;;;;5067084;28;45391;-63
2023/06/01 09:06:12;;;;;;;;;29.20;27.80;;;;;;;;5053967;28;45332;-63
2023/06/01 09:08:38;;;;;;;;;28.75;27.00;;;;;;;;5039330;28;45543;-62
2023/06/01 09:11:03;;;;;;;;;30.25;28.00;;;;;;;;5052165;28;45346;-62
2023/06/01 09:13:38;;;;;;;;;32.50;28.00;;;;;;;;5052364;28;45316;-62
2023/06/01 09:16:03;;;;;;;;;29.80;27.40;;;;;;;;5052299;28;45336;-62
2023/06/01 09:18:28;;;;;;;;;28.50;24.50;;;;;;;;5053782;28;45534;-62
2023/06/01 09:20:56;;;;;;;;;28.50;27.75;;;;;;;;5053374;28;45992;-63
2023/06/01 09:23:24;;;;;;;;;24.00;23.80;;;;;;;;5053199;28;45308;-62
2023/06/01 09:26:03;;;;;;;;;29.60;27.80;;;;;;;;5052693;28;45285;-63
2023/06/01 09:28:28;;;;;;;;;24.60;24.40;;;;;;;;5053870;28;45446;-63
2023/06/01 09:30:53;;;;;;;;;25.50;22.00;;;;;;;;5053223;28;45495;-62
2023/06/01 09:33:20;;;;;;;;;30.25;26.50;;;;;;;;5053598;28;45353;-63
2023/06/01 09:35:46;;;;;;;;;31.60;28.80;;;;;;;;5053184;28;45447;-62
2023/06/01 09:38:12;;;;;;;;;35.20;30.00;;;;;;;;5051077;28;45411;-62
2023/06/01 09:40:40;;;;;;;;;43.50;36.00;;;;;;;;5053309;28;46140;-64
2023/06/01 09:43:18;;;;;;;;;35.00;30.80;;;;;;;;5051526;28;45404;-62
2023/06/01 09:45:43;;;;;;;;;28.40;28.20;;;;;;;;5052904;28;45366;-62
2023/06/01 09:48:16;;;;;;;;;30.00;29.00;;;;;;;;5051928;28;45566;-62
2023/06/01 09:50:42;;;;;;;;;30.00;25.60;;;;;;;;5047303;28;47439;-62
2023/06/01 09:53:07;;;;;;;;;34.20;27.00;;;;;;;;5053270;28;45344;-62
2023/06/01 09:55:33;;;;;;;;;28.25;25.50;;;;;;;;5053423;28;45325;-62
2023/06/01 09:58:20;;;;;;;;;21.75;21.75;;;;;;;;5051944;28;45480;-63
2023/06/01 10:00:48;;;;;;;;;25.20;21.40;;;;;;;;5054696;28;46204;-65
2023/06/01 10:03:14;;;;;;;;;22.60;21.40;;;;;;;;5055336;28;45590;-62
2023/06/01 10:05:40;;;;;;;;;25.50;24.50;;;;;;;;5056667;28;45391;-62
2023/06/01 10:08:05;;;;;;;;;29.00;24.75;;;;;;;;5042902;28;45511;-62
2023/06/01 10:10:31;;;;;;;;;21.50;18.75;;;;;;;;5056752;28;46293;-60
2023/06/01 10:12:56;;;;;;;;;25.25;23.25;;;;;;;;5056274;28;45229;-61
2023/06/01 10:15:21;;;;;;;;;23.50;22.00;;;;;;;;5030741;28;45351;-62
2023/06/01 10:17:48;;;;;;;;;25.00;21.50;;;;;;;;5051712;28;45402;-62
2023/06/01 10:20:13;;;;;;;;;22.60;22.20;;;;;;;;5053291;28;45358;-62
2023/06/01 10:22:40;;;;;;;;;27.50;21.00;;;;;;;;5047901;28;45457;-59
2023/06/01 10:25:05;;;;;;;;;24.00;23.60;;;;;;;;5032411;28;45486;-62
2023/06/01 10:27:35;;;;;;;;;29.50;23.75;;;;;;;;5045464;28;45595;-61
2023/06/01 10:30:01;;;;;;;;;24.20;21.40;;;;;;;;5032505;28;45588;-62
2023/06/01 10:32:45;;;;;;;;;19.00;18.00;;;;;;;;5034256;28;45366;-62
2023/06/01 10:35:39;;;;;;;;;20.40;20.40;;;;;;;;5049351;28;45734;-62
2023/06/01 10:38:09;;;;;;;;;20.20;20.20;;;;;;;;5037053;28;45354;-62
2023/06/01 10:40:37;;;;;;;;;24.20;22.00;;;;;;;;5029893;28;47925;-61
2023/06/01 10:43:03;;;;;;;;;20.20;20.20;;;;;;;;5034447;28;45342;-61
2023/06/01 10:45:38;;;;;;;;;21.00;21.00;;;;;;;;5034704;28;45605;-62
2023/06/01 10:48:04;;;;;;;;;23.00;20.20;;;;;;;;5034240;28;45374;-62
2023/06/01 10:50:29;;;;;;;;;26.75;23.00;;;;;;;;5055933;28;45505;-62
2023/06/01 10:52:54;;;;;;;;;18.75;17.75;;;;;;;;5056481;28;45355;-62
2023/06/01 10:55:22;;;;;;;;;24.75;23.75;;;;;;;;5042657;28;45804;-61
2023/06/01 10:57:47;;;;;;;;;21.40;21.20;;;;;;;;5065606;28;45258;-60
2023/06/01 11:00:13;;;;;;;;;18.00;16.00;;;;;;;;5045128;28;45646;-62
2023/06/01 11:02:48;;;;;;;;;23.75;20.50;;;;;;;;5051327;28;45329;-62
2023/06/01 11:05:32;;;;;;;;;20.60;20.20;;;;;;;;5038295;28;45733;-61
2023/06/01 11:07:57;;;;;;;;;23.20;21.20;;;;;;;;5036310;28;45374;-61
2023/06/01 11:10:41;;;;;;;;;17.25;17.25;;;;;;;;5035717;28;45580;-61
2023/06/01 11:13:12;;;;;;;;;17.40;16.80;;;;;;;;5034952;28;45218;-62
2023/06/01 11:15:39;;;;;;;;;19.60;18.80;;;;;;;;5036527;28;45429;-59
2023/06/01 11:18:23;;;;;;;;;21.80;19.00;;;;;;;;5036123;28;45396;-62
2023/06/01 11:20:49;;;;;;;;;17.60;16.20;;;;;;;;5034259;28;48036;-60
2023/06/01 11:23:14;;;;;;;;;18.40;17.60;;;;;;;;5034612;28;45395;-63
2023/06/01 11:25:40;;;;;;;;;21.75;20.75;;;;;;;;5051275;28;45433;-62
2023/06/01 11:28:06;;;;;;;;;18.00;17.20;;;;;;;;5036482;28;45200;-62
2023/06/01 11:30:33;;;;;;;;;19.25;19.00;;;;;;;;5035583;28;46067;-62
2023/06/01 11:32:58;;;;;;;;;16.60;14.00;;;;;;;;5034331;28;45324;-61
2023/06/01 11:35:26;;;;;;;;;20.00;19.25;;;;;;;;5035588;28;45300;-61
2023/06/01 11:37:53;;;;;;;;;17.20;16.40;;;;;;;;5035854;28;45459;-62
2023/06/01 11:40:20;;;;;;;;;18.20;16.40;;;;;;;;5035251;28;45670;-62
2023/06/01 11:42:46;;;;;;;;;15.80;14.20;;;;;;;;5032475;28;45377;-64
2023/06/01 11:45:14;;;;;;;;;16.50;16.50;;;;;;;;5032359;28;45689;-61
2023/06/01 11:47:39;;;;;;;;;16.40;16.40;;;;;;;;5029460;28;45942;-61
2023/06/01 11:50:05;;;;;;;;;18.50;16.25;;;;;;;;5054312;28;46541;-62
2023/06/01 11:52:30;;;;;;;;;13.00;13.00;;;;;;;;5053899;28;45489;-63
2023/06/01 11:55:01;;;;;;;;;17.50;16.75;;;;;;;;5052718;28;45853;-63
2023/06/01 11:57:27;;;;;;;;;16.40;15.40;;;;;;;;5064219;28;45349;-60
2023/06/01 11:59:52;;;;;;;;;15.75;15.25;;;;;;;;5069367;28;45463;-60
2023/06/01 12:02:19;;;;;;;;;15.25;15.00;;;;;;;;5048877;28;45494;-62
2023/06/01 12:04:53;;;;;;;;;16.80;16.40;;;;;;;;5041778;28;45482;-62
2023/06/01 12:07:18;;;;;;;;;17.80;15.80;;;;;;;;5054581;28;45697;-60
2023/06/01 12:09:44;;;;;;;;;19.75;19.00;;;;;;;;5046719;28;46296;-62
2023/06/01 12:12:09;;;;;;;;;15.75;13.50;;;;;;;;5053121;28;45512;-63
2023/06/01 12:14:35;;;;;;;;;15.00;14.25;;;;;;;;5038147;28;45642;-63
2023/06/01 12:17:04;;;;;;;;;13.75;13.75;;;;;;;;5035226;28;45446;-62
2023/06/01 12:19:31;;;;;;;;;13.00;11.20;;;;;;;;5038147;28;47359;-62
2023/06/01 12:21:57;;;;;;;;;16.60;14.40;;;;;;;;5037586;28;45299;-62
2023/06/01 12:24:27;;;;;;;;;14.75;13.25;;;;;;;;5034836;28;45318;-63
2023/06/01 12:26:52;;;;;;;;;16.00;14.80;;;;;;;;5039380;28;45367;-61
2023/06/01 12:29:33;;;;;;;;;16.00;13.50;;;;;;;;5035763;28;45715;-61
2023/06/01 12:31:58;;;;;;;;;13.80;13.00;;;;;;;;5037440;28;45405;-61
2023/06/01 12:34:24;;;;;;;;;14.50;13.25;;;;;;;;5035076;28;45337;-61
2023/06/01 12:36:49;;;;;;;;;15.25;14.00;;;;;;;;5034989;28;45330;-61
2023/06/01 12:39:15;;;;;;;;;14.00;14.00;;;;;;;;5050301;28;45665;-61
2023/06/01 12:41:47;;;;;;;;;15.75;13.75;;;;;;;;5033688;28;45426;-61
2023/06/01 12:44:17;;;;;;;;;14.40;12.80;;;;;;;;5034603;28;45367;-61
2023/06/01 12:46:42;;;;;;;;;13.80;10.60;;;;;;;;5034946;28;45390;-61
2023/06/01 12:49:11;;;;;;;;;15.25;14.25;;;;;;;;5034652;28;45409;-60
2023/06/01 12:51:37;;;;;;;;;14.40;12.00;;;;;;;;5034895;28;45274;-60
2023/06/01 12:54:02;;;;;;;;;12.25;12.25;;;;;;;;5034283;28;45420;-61
2023/06/01 12:56:27;;;;;;;;;13.25;13.00;;;;;;;;5035330;28;45163;-61
2023/06/01 12:58:53;;;;;;;;;15.50;13.75;;;;;;;;5049945;28;45922;-62
2023/06/01 13:01:18;;;;;;;;;12.75;11.75;;;;;;;;5034850;28;45331;-61
2023/06/01 13:03:44;;;;;;;;;12.75;12.50;;;;;;;;5035005;28;45337;-61
2023/06/01 13:06:10;;;;;;;;;16.75;13.75;;;;;;;;5053190;28;45650;-61
2023/06/01 13:08:35;;;;;;;;;15.25;15.25;;;;;;;;5054781;28;45836;-61
2023/06/01 13:11:00;;;;;;;;;11.25;10.50;;;;;;;;5054344;28;45335;-61
2023/06/01 13:13:25;;;;;;;;;11.50;11.50;;;;;;;;5054591;28;45507;-61
2023/06/01 13:15:51;;;;;;;;;13.75;13.75;;;;;;;;5055101;28;45406;-61
2023/06/01 13:18:16;;;;;;;;;14.25;12.00;;;;;;;;5070225;28;46278;-61
2023/06/01 13:20:42;;;;;;;;;12.75;12.75;;;;;;;;5054294;28;45438;-62
2023/06/01 13:23:07;;;;;;;;;12.25;10.00;;;;;;;;5054607;28;45384;-61
2023/06/01 13:25:33;;;;;;;;;12.25;11.00;;;;;;;;5053390;28;45591;-60
2023/06/01 13:27:59;;;;;;;;;12.00;10.25;;;;;;;;5054176;28;47282;-61
2023/06/01 13:30:24;;;;;;;;;11.50;11.25;;;;;;;;5054639;28;45734;-61
2023/06/01 13:32:49;;;;;;;;;10.75;9.50;;;;;;;;5053019;28;45272;-60
2023/06/01 13:35:14;;;;;;;;;15.00;12.25;;;;;;;;5055626;28;45399;-61
2023/06/01 13:37:40;;;;;;;;;13.50;10.75;;;;;;;;5072892;28;46126;-61
2023/06/01 13:40:05;;;;;;;;;10.50;9.00;;;;;;;;5057947;28;45286;-61
2023/06/01 13:42:32;;;;;;;;;12.00;10.75;;;;;;;;5057736;28;45150;-61
2023/06/01 13:44:57;;;;;;;;;10.20;10.20;;;;;;;;5058158;28;45263;-61
2023/06/01 13:47:22;;;;;;;;;10.50;9.50;;;;;;;;5057194;28;46230;-61
2023/06/01 13:49:48;;;;;;;;;11.75;10.00;;;;;;;;5057800;28;45320;-61
2023/06/01 13:52:13;;;;;;;;;11.25;11.25;;;;;;;;5058243;28;45749;-62
2023/06/01 13:54:38;;;;;;;;;9.75;9.50;;;;;;;;5057760;28;45270;-60
2023/06/01 13:57:05;;;;;;;;;13.00;10.25;;;;;;;;5056175;28;47770;-62
2023/06/01 13:59:30;;;;;;;;;12.60;10.20;;;;;;;;5057434;28;45507;-63
2023/06/01 14:01:56;;;;;;;;;13.50;11.75;;;;;;;;5073149;28;45466;-61
2023/06/01 14:04:21;;;;;;;;;15.00;12.25;;;;;;;;5057747;28;45477;-62
2023/06/01 14:06:47;;;;;;;;;12.25;12.25;;;;;;;;5039161;28;46631;-62
2023/06/01 14:09:13;;;;;;;;;11.50;11.00;;;;;;;;5057603;28;45356;-59
2023/06/01 14:11:38;;;;;;;;;11.25;9.50;;;;;;;;5055987;28;45416;-61
2023/06/01 14:14:03;;;;;;;;;20.00;13.25;;;;;;;;5057617;28;45497;-60
2023/06/01 14:16:28;;;;;;;;;10.50;10.50;;;;;;;;5057492;28;46120;-63